sensor_id;sensor_type;location;lat;lon;timestamp;temperature;humidity
36552;DHT22;22559;54.176;12.102;2023-04-24T00:00:04;12.10;99.90
36552;DHT22;22559;54.176;12.102;2023-04-24T00:02:37;12.10;99.90
36552;DHT22;22559;54.176;12.102;2023-04-24T00:05:07;12.00;99.90
36552;DHT22;22559;54.176;12.102;2023-04-24T00:07:33;11.90;99.90
36552;DHT22;22559;54.176;12.102;2023-04-24T00:09:59;11.80;99.90
36552;DHT22;22559;54.176;12.102;2023-04-24T00:12:26;11.90;99.90
36552;DHT22;22559;54.176;12.102;2023-04-24T00:14:52;11.90;99.90
36552;DHT22;22559;54.176;12.102;2023-04-24T00:17:18;11.80;99.90
36552;DHT22;22559;54.176;12.102;2023-04-24T00:19:48;11.80;99.90
36552;DHT22;22559;54.176;12.102;2023-04-24T00:22:13;11.70;99.90
36552;DHT22;22559;54.176;12.102;2023-04-24T00:24:40;11.60;99.90
36552;DHT22;22559;54.176;12.102;2023-04-24T00:27:05;11.60;99.90
36552;DHT22;22559;54.176;12.102;2023-04-24T00:29:31;11.50;99.90
36552;DHT22;22559;54.176;12.102;2023-04-24T00:31:57;11.50;99.90
36552;DHT22;22559;54.176;12.102;2023-04-24T00:34:23;11.40;99.90
36552;DHT22;22559;54.176;12.102;2023-04-24T00:36:49;11.40;99.90
36552;DHT22;22559;54.176;12.102;2023-04-24T00:39:18;11.40;99.90
36552;DHT22;22559;54.176;12.102;2023-04-24T00:41:44;11.40;99.90
36552;DHT22;22559;54.176;12.102;2023-04-24T00:44:11;11.40;99.90
36552;DHT22;22559;54.176;12.102;2023-04-24T00:46:36;11.40;99.90
36552;DHT22;22559;54.176;12.102;2023-04-24T00:49:02;11.40;99.90
36552;DHT22;22559;54.176;12.102;2023-04-24T00:51:29;11.40;99.90
36552;DHT22;22559;54.176;12.102;2023-04-24T00:53:56;11.40;99.90
36552;DHT22;22559;54.176;12.102;2023-04-24T00:56:21;11.50;99.90
36552;DHT22;22559;54.176;12.102;2023-04-24T00:58:49;11.50;99.90
36552;DHT22;22559;54.176;12.102;2023-04-24T01:01:14;11.50;99.90
36552;DHT22;22559;54.176;12.102;2023-04-24T01:03:40;11.50;99.90
36552;DHT22;22559;54.176;12.102;2023-04-24T01:06:06;11.50;99.90
36552;DHT22;22559;54.176;12.102;2023-04-24T01:08:32;11.50;99.90
36552;DHT22;22559;54.176;12.102;2023-04-24T01:11:03;11.40;99.90
36552;DHT22;22559;54.176;12.102;2023-04-24T01:13:29;11.50;99.90
36552;DHT22;22559;54.176;12.102;2023-04-24T01:15:55;11.40;99.90
36552;DHT22;22559;54.176;12.102;2023-04-24T01:18:21;11.40;99.90
36552;DHT22;22559;54.176;12.102;2023-04-24T01:20:50;11.30;99.90
36552;DHT22;22559;54.176;12.102;2023-04-24T01:23:18;11.40;99.90
36552;DHT22;22559;54.176;12.102;2023-04-24T01:25:44;11.30;99.90
36552;DHT22;22559;54.176;12.102;2023-04-24T01:28:10;11.30;99.90
36552;DHT22;22559;54.176;12.102;2023-04-24T01:30:36;11.20;99.90
36552;DHT22;22559;54.176;12.102;2023-04-24T01:33:01;11.20;99.90
36552;DHT22;22559;54.176;12.102;2023-04-24T01:35:28;11.20;99.90
36552;DHT22;22559;54.176;12.102;2023-04-24T01:37:53;11.30;99.90
36552;DHT22;22559;54.176;12.102;2023-04-24T01:40:19;11.30;99.90
36552;DHT22;22559;54.176;12.102;2023-04-24T01:42:45;11.40;99.90
36552;DHT22;22559;54.176;12.102;2023-04-24T01:45:11;11.40;99.90
36552;DHT22;22559;54.176;12.102;2023-04-24T01:47:38;11.40;99.90
36552;DHT22;22559;54.176;12.102;2023-04-24T01:50:05;11.40;99.90
36552;DHT22;22559;54.176;12.102;2023-04-24T01:52:31;11.40;99.90
36552;DHT22;22559;54.176;12.102;2023-04-24T01:55:02;11.40;99.90
36552;DHT22;22559;54.176;12.102;2023-04-24T01:57:28;11.40;99.90
36552;DHT22;22559;54.176;12.102;2023-04-24T01:59:55;11.40;99.90
36552;DHT22;22559;54.176;12.102;2023-04-24T02:02:21;11.40;99.90
36552;DHT22;22559;54.176;12.102;2023-04-24T02:04:52;11.40;99.90
36552;DHT22;22559;54.176;12.102;2023-04-24T02:07:18;11.30;99.90
36552;DHT22;22559;54.176;12.102;2023-04-24T02:09:43;11.30;99.90
36552;DHT22;22559;54.176;12.102;2023-04-24T02:12:09;11.30;99.90
36552;DHT22;22559;54.176;12.102;2023-04-24T02:14:34;11.30;99.90
36552;DHT22;22559;54.176;12.102;2023-04-24T02:17:00;11.30;99.90
36552;DHT22;22559;54.176;12.102;2023-04-24T02:19:26;11.30;99.90
36552;DHT22;22559;54.176;12.102;2023-04-24T02:21:52;11.30;99.90
36552;DHT22;22559;54.176;12.102;2023-04-24T02:24:17;11.30;99.90
36552;DHT22;22559;54.176;12.102;2023-04-24T02:26:43;11.30;99.90
36552;DHT22;22559;54.176;12.102;2023-04-24T02:29:09;11.30;99.90
36552;DHT22;22559;54.176;12.102;2023-04-24T02:31:34;11.40;99.90
36552;DHT22;22559;54.176;12.102;2023-04-24T02:34:00;11.40;99.90
36552;DHT22;22559;54.176;12.102;2023-04-24T02:36:26;11.40;99.90
36552;DHT22;22559;54.176;12.102;2023-04-24T02:38:52;11.40;99.90
36552;DHT22;22559;54.176;12.102;2023-04-24T02:41:17;11.50;99.90
36552;DHT22;22559;54.176;12.102;2023-04-24T02:43:43;11.50;99.90
36552;DHT22;22559;54.176;12.102;2023-04-24T02:46:08;11.50;99.90
36552;DHT22;22559;54.176;12.102;2023-04-24T02:48:34;11.50;99.90
36552;DHT22;22559;54.176;12.102;2023-04-24T02:51:00;11.50;99.90
36552;DHT22;22559;54.176;12.102;2023-04-24T02:53:25;11.50;99.90
36552;DHT22;22559;54.176;12.102;2023-04-24T02:55:51;11.50;99.90
36552;DHT22;22559;54.176;12.102;2023-04-24T02:58:17;11.50;99.90
36552;DHT22;22559;54.176;12.102;2023-04-24T03:00:45;11.50;99.90
36552;DHT22;22559;54.176;12.102;2023-04-24T03:03:11;11.50;99.90
36552;DHT22;22559;54.176;12.102;2023-04-24T03:05:36;11.60;99.90
36552;DHT22;22559;54.176;12.102;2023-04-24T03:08:02;11.70;99.90
36552;DHT22;22559;54.176;12.102;2023-04-24T03:10:28;11.70;99.90
36552;DHT22;22559;54.176;12.102;2023-04-24T03:12:53;11.70;99.90
36552;DHT22;22559;54.176;12.102;2023-04-24T03:15:20;11.70;99.90
36552;DHT22;22559;54.176;12.102;2023-04-24T03:17:48;11.60;99.90
36552;DHT22;22559;54.176;12.102;2023-04-24T03:20:14;11.50;99.90
36552;DHT22;22559;54.176;12.102;2023-04-24T03:22:40;11.50;99.90
36552;DHT22;22559;54.176;12.102;2023-04-24T03:25:06;11.40;99.90
36552;DHT22;22559;54.176;12.102;2023-04-24T03:27:33;11.40;99.90
36552;DHT22;22559;54.176;12.102;2023-04-24T03:29:59;11.40;99.90
36552;DHT22;22559;54.176;12.102;2023-04-24T03:32:26;11.40;99.90
36552;DHT22;22559;54.176;12.102;2023-04-24T03:34:51;11.50;99.90
36552;DHT22;22559;54.176;12.102;2023-04-24T03:37:17;11.50;99.90
36552;DHT22;22559;54.176;12.102;2023-04-24T03:39:43;11.50;99.90
36552;DHT22;22559;54.176;12.102;2023-04-24T03:42:09;11.50;99.90
36552;DHT22;22559;54.176;12.102;2023-04-24T03:44:35;11.60;99.90
36552;DHT22;22559;54.176;12.102;2023-04-24T03:47:01;11.60;99.90
36552;DHT22;22559;54.176;12.102;2023-04-24T03:49:27;11.60;99.90
36552;DHT22;22559;54.176;12.102;2023-04-24T03:51:52;11.60;99.90
36552;DHT22;22559;54.176;12.102;2023-04-24T03:54:19;11.60;99.90
36552;DHT22;22559;54.176;12.102;2023-04-24T03:56:44;11.60;99.90
36552;DHT22;22559;54.176;12.102;2023-04-24T03:59:13;11.60;99.90
36552;DHT22;22559;54.176;12.102;2023-04-24T04:01:39;11.60;99.90
36552;DHT22;22559;54.176;12.102;2023-04-24T04:04:05;11.60;99.90
36552;DHT22;22559;54.176;12.102;2023-04-24T04:06:31;11.60;99.90
36552;DHT22;22559;54.176;12.102;2023-04-24T04:08:57;11.60;99.90
36552;DHT22;22559;54.176;12.102;2023-04-24T04:11:23;11.50;99.90
36552;DHT22;22559;54.176;12.102;2023-04-24T04:13:48;11.50;99.90
36552;DHT22;22559;54.176;12.102;2023-04-24T04:16:14;11.60;99.90
36552;DHT22;22559;54.176;12.102;2023-04-24T04:18:42;11.60;99.90
36552;DHT22;22559;54.176;12.102;2023-04-24T04:21:08;11.50;99.90
36552;DHT22;22559;54.176;12.102;2023-04-24T04:23:33;11.60;99.90
36552;DHT22;22559;54.176;12.102;2023-04-24T04:25:59;11.60;99.90
36552;DHT22;22559;54.176;12.102;2023-04-24T04:28:25;11.50;99.90
36552;DHT22;22559;54.176;12.102;2023-04-24T04:30:51;11.50;99.90
36552;DHT22;22559;54.176;12.102;2023-04-24T04:33:21;11.50;99.90
36552;DHT22;22559;54.176;12.102;2023-04-24T04:35:47;11.50;99.90
36552;DHT22;22559;54.176;12.102;2023-04-24T04:38:18;11.60;99.90
36552;DHT22;22559;54.176;12.102;2023-04-24T04:40:44;11.60;99.90
36552;DHT22;22559;54.176;12.102;2023-04-24T04:43:10;11.60;99.90
36552;DHT22;22559;54.176;12.102;2023-04-24T04:45:36;11.50;99.90
36552;DHT22;22559;54.176;12.102;2023-04-24T04:48:04;11.50;99.90
36552;DHT22;22559;54.176;12.102;2023-04-24T04:50:31;11.50;99.90
36552;DHT22;22559;54.176;12.102;2023-04-24T04:52:57;11.50;99.90
36552;DHT22;22559;54.176;12.102;2023-04-24T04:55:25;11.50;99.90
36552;DHT22;22559;54.176;12.102;2023-04-24T04:57:51;11.50;99.90
36552;DHT22;22559;54.176;12.102;2023-04-24T05:00:17;11.50;99.90
36552;DHT22;22559;54.176;12.102;2023-04-24T05:02:43;11.50;99.90
36552;DHT22;22559;54.176;12.102;2023-04-24T05:05:09;11.50;99.90
36552;DHT22;22559;54.176;12.102;2023-04-24T05:07:35;11.50;99.90
36552;DHT22;22559;54.176;12.102;2023-04-24T05:10:01;11.50;99.90
36552;DHT22;22559;54.176;12.102;2023-04-24T05:12:26;11.50;99.90
36552;DHT22;22559;54.176;12.102;2023-04-24T05:14:52;11.60;99.90
36552;DHT22;22559;54.176;12.102;2023-04-24T05:17:18;11.60;99.90
36552;DHT22;22559;54.176;12.102;2023-04-24T05:19:44;11.60;99.90
36552;DHT22;22559;54.176;12.102;2023-04-24T05:22:10;11.60;99.90
36552;DHT22;22559;54.176;12.102;2023-04-24T05:24:37;11.60;99.90
36552;DHT22;22559;54.176;12.102;2023-04-24T05:27:03;11.60;99.90
36552;DHT22;22559;54.176;12.102;2023-04-24T05:29:30;11.60;99.90
36552;DHT22;22559;54.176;12.102;2023-04-24T05:31:59;11.60;99.90
36552;DHT22;22559;54.176;12.102;2023-04-24T05:34:26;11.60;99.90
36552;DHT22;22559;54.176;12.102;2023-04-24T05:36:51;11.60;99.90
36552;DHT22;22559;54.176;12.102;2023-04-24T05:39:17;11.60;99.90
36552;DHT22;22559;54.176;12.102;2023-04-24T05:41:43;11.60;99.90
36552;DHT22;22559;54.176;12.102;2023-04-24T05:44:09;11.70;99.90
36552;DHT22;22559;54.176;12.102;2023-04-24T05:46:34;11.80;99.90
36552;DHT22;22559;54.176;12.102;2023-04-24T05:49:00;11.80;99.90
36552;DHT22;22559;54.176;12.102;2023-04-24T05:51:26;11.90;99.90
36552;DHT22;22559;54.176;12.102;2023-04-24T05:53:52;11.90;99.90
36552;DHT22;22559;54.176;12.102;2023-04-24T05:56:18;12.00;99.90
36552;DHT22;22559;54.176;12.102;2023-04-24T05:58:44;12.10;99.90
36552;DHT22;22559;54.176;12.102;2023-04-24T06:01:10;12.10;99.90
36552;DHT22;22559;54.176;12.102;2023-04-24T06:03:37;12.20;99.90
36552;DHT22;22559;54.176;12.102;2023-04-24T06:06:03;12.30;99.90
36552;DHT22;22559;54.176;12.102;2023-04-24T06:08:29;12.40;99.90
36552;DHT22;22559;54.176;12.102;2023-04-24T06:10:54;12.50;99.90
36552;DHT22;22559;54.176;12.102;2023-04-24T06:13:20;12.60;99.90
36552;DHT22;22559;54.176;12.102;2023-04-24T06:15:45;12.60;99.90
36552;DHT22;22559;54.176;12.102;2023-04-24T06:18:11;12.70;99.90
36552;DHT22;22559;54.176;12.102;2023-04-24T06:20:38;12.80;99.90
36552;DHT22;22559;54.176;12.102;2023-04-24T06:23:04;13.00;99.90
36552;DHT22;22559;54.176;12.102;2023-04-24T06:25:29;13.00;99.90
36552;DHT22;22559;54.176;12.102;2023-04-24T06:27:56;12.90;99.90
36552;DHT22;22559;54.176;12.102;2023-04-24T06:30:22;13.00;99.90
36552;DHT22;22559;54.176;12.102;2023-04-24T06:32:48;13.00;99.90
36552;DHT22;22559;54.176;12.102;2023-04-24T06:35:13;13.10;99.90
36552;DHT22;22559;54.176;12.102;2023-04-24T06:37:41;13.00;99.90
36552;DHT22;22559;54.176;12.102;2023-04-24T06:40:07;13.10;99.90
36552;DHT22;22559;54.176;12.102;2023-04-24T06:42:33;13.30;99.90
36552;DHT22;22559;54.176;12.102;2023-04-24T06:45:00;13.50;99.90
36552;DHT22;22559;54.176;12.102;2023-04-24T06:47:26;13.60;99.90
36552;DHT22;22559;54.176;12.102;2023-04-24T06:49:52;13.60;99.90
36552;DHT22;22559;54.176;12.102;2023-04-24T06:52:18;13.70;99.90
36552;DHT22;22559;54.176;12.102;2023-04-24T06:54:43;13.70;99.90
36552;DHT22;22559;54.176;12.102;2023-04-24T06:57:09;13.80;99.90
36552;DHT22;22559;54.176;12.102;2023-04-24T06:59:36;13.80;99.90
36552;DHT22;22559;54.176;12.102;2023-04-24T07:02:02;13.80;99.90
36552;DHT22;22559;54.176;12.102;2023-04-24T07:04:28;13.80;99.90
36552;DHT22;22559;54.176;12.102;2023-04-24T07:06:54;13.70;99.90
36552;DHT22;22559;54.176;12.102;2023-04-24T07:09:22;13.70;99.90
36552;DHT22;22559;54.176;12.102;2023-04-24T07:11:49;13.70;99.90
36552;DHT22;22559;54.176;12.102;2023-04-24T07:14:15;13.70;99.90
36552;DHT22;22559;54.176;12.102;2023-04-24T07:16:42;13.80;99.90
36552;DHT22;22559;54.176;12.102;2023-04-24T07:19:08;13.80;99.90
36552;DHT22;22559;54.176;12.102;2023-04-24T07:21:34;13.80;99.90
36552;DHT22;22559;54.176;12.102;2023-04-24T07:23:59;13.90;99.90
36552;DHT22;22559;54.176;12.102;2023-04-24T07:26:26;13.90;99.90
36552;DHT22;22559;54.176;12.102;2023-04-24T07:28:53;14.00;99.90
36552;DHT22;22559;54.176;12.102;2023-04-24T07:31:18;14.10;99.90
36552;DHT22;22559;54.176;12.102;2023-04-24T07:33:44;14.20;99.90
36552;DHT22;22559;54.176;12.102;2023-04-24T07:36:10;14.20;99.90
36552;DHT22;22559;54.176;12.102;2023-04-24T07:38:44;14.30;99.90
36552;DHT22;22559;54.176;12.102;2023-04-24T07:41:10;14.40;99.90
36552;DHT22;22559;54.176;12.102;2023-04-24T07:43:39;14.40;99.90
36552;DHT22;22559;54.176;12.102;2023-04-24T07:46:05;14.40;99.90
36552;DHT22;22559;54.176;12.102;2023-04-24T07:48:31;14.40;99.90
36552;DHT22;22559;54.176;12.102;2023-04-24T07:50:56;14.50;99.90
36552;DHT22;22559;54.176;12.102;2023-04-24T07:53:22;14.60;99.90
36552;DHT22;22559;54.176;12.102;2023-04-24T07:55:47;14.50;99.90
36552;DHT22;22559;54.176;12.102;2023-04-24T07:58:13;14.50;99.90
36552;DHT22;22559;54.176;12.102;2023-04-24T08:00:39;14.30;99.90
36552;DHT22;22559;54.176;12.102;2023-04-24T08:03:04;14.30;99.90
36552;DHT22;22559;54.176;12.102;2023-04-24T08:05:30;14.30;99.90
36552;DHT22;22559;54.176;12.102;2023-04-24T08:07:56;14.30;99.90
36552;DHT22;22559;54.176;12.102;2023-04-24T08:10:22;14.30;99.90
36552;DHT22;22559;54.176;12.102;2023-04-24T08:12:48;14.30;99.90
36552;DHT22;22559;54.176;12.102;2023-04-24T08:15:14;14.40;99.90
36552;DHT22;22559;54.176;12.102;2023-04-24T08:17:40;14.30;99.90
36552;DHT22;22559;54.176;12.102;2023-04-24T08:20:06;14.30;99.90
36552;DHT22;22559;54.176;12.102;2023-04-24T08:22:35;14.30;99.90
36552;DHT22;22559;54.176;12.102;2023-04-24T08:25:01;14.30;99.90
36552;DHT22;22559;54.176;12.102;2023-04-24T08:27:27;14.10;99.90
36552;DHT22;22559;54.176;12.102;2023-04-24T08:29:57;14.10;99.90
36552;DHT22;22559;54.176;12.102;2023-04-24T08:32:23;14.00;99.90
36552;DHT22;22559;54.176;12.102;2023-04-24T08:34:48;14.10;99.90
36552;DHT22;22559;54.176;12.102;2023-04-24T08:37:14;14.10;99.90
36552;DHT22;22559;54.176;12.102;2023-04-24T08:39:40;14.10;99.90
36552;DHT22;22559;54.176;12.102;2023-04-24T08:42:05;14.20;99.90
36552;DHT22;22559;54.176;12.102;2023-04-24T08:44:34;14.20;99.90
36552;DHT22;22559;54.176;12.102;2023-04-24T08:47:02;14.10;99.90
36552;DHT22;22559;54.176;12.102;2023-04-24T08:49:28;14.10;99.90
36552;DHT22;22559;54.176;12.102;2023-04-24T08:51:54;14.20;99.90
36552;DHT22;22559;54.176;12.102;2023-04-24T08:54:21;14.20;99.90
36552;DHT22;22559;54.176;12.102;2023-04-24T08:56:48;14.20;99.90
36552;DHT22;22559;54.176;12.102;2023-04-24T08:59:15;14.30;99.90
36552;DHT22;22559;54.176;12.102;2023-04-24T09:01:41;14.50;99.90
36552;DHT22;22559;54.176;12.102;2023-04-24T09:04:08;14.60;99.90
36552;DHT22;22559;54.176;12.102;2023-04-24T09:06:36;14.50;99.90
36552;DHT22;22559;54.176;12.102;2023-04-24T09:09:02;14.50;99.90
36552;DHT22;22559;54.176;12.102;2023-04-24T09:11:32;14.50;99.90
36552;DHT22;22559;54.176;12.102;2023-04-24T09:14:01;14.50;99.90
36552;DHT22;22559;54.176;12.102;2023-04-24T09:16:27;14.60;99.90
36552;DHT22;22559;54.176;12.102;2023-04-24T09:18:53;14.80;99.90
36552;DHT22;22559;54.176;12.102;2023-04-24T09:21:21;15.10;99.90
36552;DHT22;22559;54.176;12.102;2023-04-24T09:23:57;15.50;99.90
36552;DHT22;22559;54.176;12.102;2023-04-24T09:26:25;15.60;99.90
36552;DHT22;22559;54.176;12.102;2023-04-24T09:28:50;15.90;99.90
36552;DHT22;22559;54.176;12.102;2023-04-24T09:31:19;16.20;99.90
36552;DHT22;22559;54.176;12.102;2023-04-24T09:34:01;16.60;99.90
36552;DHT22;22559;54.176;12.102;2023-04-24T09:36:33;16.40;99.90
36552;DHT22;22559;54.176;12.102;2023-04-24T09:39:01;16.80;99.90
36552;DHT22;22559;54.176;12.102;2023-04-24T09:41:27;16.90;99.90
36552;DHT22;22559;54.176;12.102;2023-04-24T09:43:55;16.70;99.90
36552;DHT22;22559;54.176;12.102;2023-04-24T09:46:20;16.40;99.90
36552;DHT22;22559;54.176;12.102;2023-04-24T09:48:49;16.20;99.90
36552;DHT22;22559;54.176;12.102;2023-04-24T09:51:15;16.80;99.90
36552;DHT22;22559;54.176;12.102;2023-04-24T09:53:48;17.30;99.90
36552;DHT22;22559;54.176;12.102;2023-04-24T09:56:18;17.60;99.90
36552;DHT22;22559;54.176;12.102;2023-04-24T09:58:46;17.90;99.90
36552;DHT22;22559;54.176;12.102;2023-04-24T10:01:12;18.20;99.90
36552;DHT22;22559;54.176;12.102;2023-04-24T10:03:38;18.10;99.90
36552;DHT22;22559;54.176;12.102;2023-04-24T10:06:07;18.30;99.90
36552;DHT22;22559;54.176;12.102;2023-04-24T10:08:36;18.60;99.90
36552;DHT22;22559;54.176;12.102;2023-04-24T10:11:02;18.70;99.90
36552;DHT22;22559;54.176;12.102;2023-04-24T10:13:28;18.80;99.90
36552;DHT22;22559;54.176;12.102;2023-04-24T10:15:56;19.00;99.90
36552;DHT22;22559;54.176;12.102;2023-04-24T10:18:22;19.00;99.90
36552;DHT22;22559;54.176;12.102;2023-04-24T10:20:49;18.30;99.90
36552;DHT22;22559;54.176;12.102;2023-04-24T10:23:15;17.70;99.90
36552;DHT22;22559;54.176;12.102;2023-04-24T10:25:40;17.30;99.90
36552;DHT22;22559;54.176;12.102;2023-04-24T10:28:06;17.10;99.90
36552;DHT22;22559;54.176;12.102;2023-04-24T10:30:35;16.70;99.90
36552;DHT22;22559;54.176;12.102;2023-04-24T10:33:06;16.40;99.90
36552;DHT22;22559;54.176;12.102;2023-04-24T10:35:39;16.20;99.90
36552;DHT22;22559;54.176;12.102;2023-04-24T10:38:09;16.00;99.90
36552;DHT22;22559;54.176;12.102;2023-04-24T10:40:36;15.90;99.90
36552;DHT22;22559;54.176;12.102;2023-04-24T10:43:06;15.90;99.90
36552;DHT22;22559;54.176;12.102;2023-04-24T10:45:33;16.10;99.90
36552;DHT22;22559;54.176;12.102;2023-04-24T10:48:03;16.20;99.90
36552;DHT22;22559;54.176;12.102;2023-04-24T10:50:41;16.20;99.90
36552;DHT22;22559;54.176;12.102;2023-04-24T10:53:12;16.50;99.90
36552;DHT22;22559;54.176;12.102;2023-04-24T10:55:52;16.60;99.90
36552;DHT22;22559;54.176;12.102;2023-04-24T10:58:24;16.60;99.90
36552;DHT22;22559;54.176;12.102;2023-04-24T11:00:59;16.70;99.90
36552;DHT22;22559;54.176;12.102;2023-04-24T11:03:33;16.60;99.90
36552;DHT22;22559;54.176;12.102;2023-04-24T11:06:07;16.40;99.90
36552;DHT22;22559;54.176;12.102;2023-04-24T11:08:46;16.30;99.90
36552;DHT22;22559;54.176;12.102;2023-04-24T11:11:13;16.20;99.90
36552;DHT22;22559;54.176;12.102;2023-04-24T11:16:23;16.00;99.90
36552;DHT22;22559;54.176;12.102;2023-04-24T11:21:59;15.80;99.90
36552;DHT22;22559;54.176;12.102;2023-04-24T11:27:15;16.30;99.90
36552;DHT22;22559;54.176;12.102;2023-04-24T11:32:23;16.60;99.90
36552;DHT22;22559;54.176;12.102;2023-04-24T11:34:50;16.80;99.90
36552;DHT22;22559;54.176;12.102;2023-04-24T11:37:17;17.00;99.90
36552;DHT22;22559;54.176;12.102;2023-04-24T11:39:43;17.10;99.90
36552;DHT22;22559;54.176;12.102;2023-04-24T11:42:15;17.20;99.90
36552;DHT22;22559;54.176;12.102;2023-04-24T11:44:42;17.40;99.90
36552;DHT22;22559;54.176;12.102;2023-04-24T11:47:08;17.40;99.90
36552;DHT22;22559;54.176;12.102;2023-04-24T11:49:36;17.40;99.90
36552;DHT22;22559;54.176;12.102;2023-04-24T11:52:02;17.40;99.90
36552;DHT22;22559;54.176;12.102;2023-04-24T11:54:28;17.40;99.90
36552;DHT22;22559;54.176;12.102;2023-04-24T11:56:54;17.50;99.90
36552;DHT22;22559;54.176;12.102;2023-04-24T11:59:19;17.60;99.90
36552;DHT22;22559;54.176;12.102;2023-04-24T12:01:46;17.60;99.90
36552;DHT22;22559;54.176;12.102;2023-04-24T12:04:12;17.60;99.90
36552;DHT22;22559;54.176;12.102;2023-04-24T12:06:38;17.70;99.90
36552;DHT22;22559;54.176;12.102;2023-04-24T12:09:03;17.60;99.90
36552;DHT22;22559;54.176;12.102;2023-04-24T12:11:30;17.80;99.90
36552;DHT22;22559;54.176;12.102;2023-04-24T12:13:55;17.70;99.90
36552;DHT22;22559;54.176;12.102;2023-04-24T12:16:21;17.80;99.90
36552;DHT22;22559;54.176;12.102;2023-04-24T12:18:47;17.80;99.90
36552;DHT22;22559;54.176;12.102;2023-04-24T12:21:22;17.40;99.90
36552;DHT22;22559;54.176;12.102;2023-04-24T12:23:50;17.10;99.90
36552;DHT22;22559;54.176;12.102;2023-04-24T12:26:20;16.90;99.90
36552;DHT22;22559;54.176;12.102;2023-04-24T12:28:48;16.80;99.90
36552;DHT22;22559;54.176;12.102;2023-04-24T12:31:15;16.70;99.90
36552;DHT22;22559;54.176;12.102;2023-04-24T12:33:42;16.70;99.90
36552;DHT22;22559;54.176;12.102;2023-04-24T12:36:10;16.60;99.90
36552;DHT22;22559;54.176;12.102;2023-04-24T12:38:37;16.50;99.90
36552;DHT22;22559;54.176;12.102;2023-04-24T12:41:08;16.40;99.90
36552;DHT22;22559;54.176;12.102;2023-04-24T12:43:34;16.20;99.90
36552;DHT22;22559;54.176;12.102;2023-04-24T12:46:00;16.00;99.90
36552;DHT22;22559;54.176;12.102;2023-04-24T12:48:27;15.80;99.90
36552;DHT22;22559;54.176;12.102;2023-04-24T12:50:52;15.10;99.90
36552;DHT22;22559;54.176;12.102;2023-04-24T12:53:18;14.10;99.90
36552;DHT22;22559;54.176;12.102;2023-04-24T12:55:44;13.40;99.90
36552;DHT22;22559;54.176;12.102;2023-04-24T12:58:19;12.90;99.90
36552;DHT22;22559;54.176;12.102;2023-04-24T13:00:45;12.70;99.90
36552;DHT22;22559;54.176;12.102;2023-04-24T13:03:11;12.50;99.90
36552;DHT22;22559;54.176;12.102;2023-04-24T13:05:37;12.40;99.90
36552;DHT22;22559;54.176;12.102;2023-04-24T13:08:03;12.40;99.90
36552;DHT22;22559;54.176;12.102;2023-04-24T13:10:28;12.30;99.90
36552;DHT22;22559;54.176;12.102;2023-04-24T13:12:54;12.50;99.90
36552;DHT22;22559;54.176;12.102;2023-04-24T13:15:20;12.80;99.90
36552;DHT22;22559;54.176;12.102;2023-04-24T13:17:45;13.00;99.90
36552;DHT22;22559;54.176;12.102;2023-04-24T13:20:11;13.10;99.90
36552;DHT22;22559;54.176;12.102;2023-04-24T13:22:37;13.40;99.90
36552;DHT22;22559;54.176;12.102;2023-04-24T13:25:03;13.60;99.90
36552;DHT22;22559;54.176;12.102;2023-04-24T13:27:28;13.90;99.90
36552;DHT22;22559;54.176;12.102;2023-04-24T13:29:54;14.10;99.90
36552;DHT22;22559;54.176;12.102;2023-04-24T13:32:20;14.10;99.90
36552;DHT22;22559;54.176;12.102;2023-04-24T13:34:46;14.00;99.90
36552;DHT22;22559;54.176;12.102;2023-04-24T13:37:11;14.00;99.90
36552;DHT22;22559;54.176;12.102;2023-04-24T13:39:37;14.00;99.90
36552;DHT22;22559;54.176;12.102;2023-04-24T13:42:03;14.10;99.90
36552;DHT22;22559;54.176;12.102;2023-04-24T13:44:28;14.10;99.90
36552;DHT22;22559;54.176;12.102;2023-04-24T13:46:55;14.20;99.90
36552;DHT22;22559;54.176;12.102;2023-04-24T13:49:23;14.70;99.90
36552;DHT22;22559;54.176;12.102;2023-04-24T13:51:51;15.30;99.90
36552;DHT22;22559;54.176;12.102;2023-04-24T13:54:16;16.00;99.90
36552;DHT22;22559;54.176;12.102;2023-04-24T13:56:42;16.50;99.90
36552;DHT22;22559;54.176;12.102;2023-04-24T13:59:08;16.60;99.90
36552;DHT22;22559;54.176;12.102;2023-04-24T14:01:34;16.40;99.90
36552;DHT22;22559;54.176;12.102;2023-04-24T14:04:00;16.10;99.90
36552;DHT22;22559;54.176;12.102;2023-04-24T14:06:25;16.10;99.90
36552;DHT22;22559;54.176;12.102;2023-04-24T14:08:51;16.10;99.90
36552;DHT22;22559;54.176;12.102;2023-04-24T14:11:18;16.30;99.90
36552;DHT22;22559;54.176;12.102;2023-04-24T14:13:44;16.80;99.90
36552;DHT22;22559;54.176;12.102;2023-04-24T14:16:10;17.50;99.90
36552;DHT22;22559;54.176;12.102;2023-04-24T14:18:36;18.20;99.90
36552;DHT22;22559;54.176;12.102;2023-04-24T14:21:03;18.80;99.90
36552;DHT22;22559;54.176;12.102;2023-04-24T14:23:29;19.10;99.90
36552;DHT22;22559;54.176;12.102;2023-04-24T14:25:55;19.50;99.90
36552;DHT22;22559;54.176;12.102;2023-04-24T14:28:21;19.20;99.90
36552;DHT22;22559;54.176;12.102;2023-04-24T14:30:47;19.20;99.90
36552;DHT22;22559;54.176;12.102;2023-04-24T14:33:14;19.50;99.90
36552;DHT22;22559;54.176;12.102;2023-04-24T14:35:40;19.70;99.90
36552;DHT22;22559;54.176;12.102;2023-04-24T14:38:07;19.60;99.90
36552;DHT22;22559;54.176;12.102;2023-04-24T14:40:33;19.40;99.90
36552;DHT22;22559;54.176;12.102;2023-04-24T14:42:59;18.80;99.90
36552;DHT22;22559;54.176;12.102;2023-04-24T14:45:25;18.00;99.90
36552;DHT22;22559;54.176;12.102;2023-04-24T14:47:51;17.50;99.90
36552;DHT22;22559;54.176;12.102;2023-04-24T14:50:16;17.10;99.90
36552;DHT22;22559;54.176;12.102;2023-04-24T14:52:42;16.90;99.90
36552;DHT22;22559;54.176;12.102;2023-04-24T14:55:08;16.80;99.90
36552;DHT22;22559;54.176;12.102;2023-04-24T14:57:34;16.80;99.90
36552;DHT22;22559;54.176;12.102;2023-04-24T15:00:02;16.70;99.90
36552;DHT22;22559;54.176;12.102;2023-04-24T15:02:29;16.50;99.90
36552;DHT22;22559;54.176;12.102;2023-04-24T15:04:54;16.40;99.90
36552;DHT22;22559;54.176;12.102;2023-04-24T15:07:20;16.30;99.90
36552;DHT22;22559;54.176;12.102;2023-04-24T15:09:45;16.30;99.90
36552;DHT22;22559;54.176;12.102;2023-04-24T15:12:12;16.20;99.90
36552;DHT22;22559;54.176;12.102;2023-04-24T15:14:38;16.10;99.90
36552;DHT22;22559;54.176;12.102;2023-04-24T15:17:04;16.20;99.90
36552;DHT22;22559;54.176;12.102;2023-04-24T15:19:30;16.10;99.90
36552;DHT22;22559;54.176;12.102;2023-04-24T15:21:56;16.00;99.90